Time;durP1;ratioP1;P1;durP2;ratioP2;P2;SDS_P1;SDS_P2;PMS_P1;PMS_P2;Temp;Humidity;BMP_temperature;BMP_pressure;BME280_temperature;BME280_humidity;BME280_pressure;Samples;Min_cycle;Max_cycle;Signal;HPM_P1;HPM_P2
2021/03/09 00:00:06;;;;;;;16.50;9.25;;;6.50;74.30;;;;;;5072740;28;20025;-73
2021/03/09 00:02:32;;;;;;;19.83;10.50;;;6.50;74.70;;;;;;5074098;28;20056;-73
2021/03/09 00:04:58;;;;;;;17.27;10.82;;;6.50;74.80;;;;;;5072673;28;20027;-72
2021/03/09 00:07:23;;;;;;;16.15;10.02;;;6.50;74.80;;;;;;5074229;28;20020;-73
2021/03/09 00:09:49;;;;;;;18.75;10.55;;;6.40;75.00;;;;;;5072893;28;20020;-72
2021/03/09 00:12:15;;;;;;;18.52;10.93;;;6.40;75.40;;;;;;5072767;28;20028;-72
2021/03/09 00:14:40;;;;;;;21.33;10.68;;;6.40;75.50;;;;;;5074168;28;20028;-73
2021/03/09 00:17:06;;;;;;;17.05;10.15;;;6.40;75.60;;;;;;5072849;28;20016;-73
2021/03/09 00:19:32;;;;;;;18.60;10.15;;;6.40;75.60;;;;;;5073979;28;20055;-72
2021/03/09 00:21:57;;;;;;;18.05;10.05;;;6.40;75.60;;;;;;5073383;28;20036;-72
2021/03/09 00:24:23;;;;;;;18.00;9.63;;;6.40;75.70;;;;;;5072465;28;20039;-73
2021/03/09 00:26:48;;;;;;;16.58;10.05;;;6.40;75.70;;;;;;5073711;28;20027;-72
2021/03/09 00:29:14;;;;;;;15.68;9.68;;;6.40;75.90;;;;;;5072428;28;20021;-73
2021/03/09 00:31:40;;;;;;;17.23;9.63;;;6.40;75.90;;;;;;5072233;28;20066;-73
2021/03/09 00:34:05;;;;;;;17.40;10.35;;;6.40;75.90;;;;;;5074061;28;20464;-73
2021/03/09 00:36:31;;;;;;;14.57;8.65;;;6.40;76.20;;;;;;5073836;28;20469;-73
2021/03/09 00:38:57;;;;;;;15.70;8.77;;;6.30;76.10;;;;;;5072292;28;20021;-73
2021/03/09 00:41:22;;;;;;;14.90;8.25;;;6.30;76.20;;;;;;5073554;28;20033;-73
2021/03/09 00:43:48;;;;;;;12.52;7.72;;;6.30;76.20;;;;;;5072087;28;20033;-73
2021/03/09 00:46:14;;;;;;;13.18;7.90;;;6.30;76.20;;;;;;5073554;28;20063;-72
2021/03/09 00:48:40;;;;;;;13.77;7.95;;;6.40;76.20;;;;;;5072077;28;20021;-73
2021/03/09 00:51:06;;;;;;;12.80;8.02;;;6.50;76.20;;;;;;5073329;28;20024;-73
2021/03/09 00:53:32;;;;;;;13.85;7.75;;;6.50;76.20;;;;;;5071974;28;20483;-72
2021/03/09 00:55:58;;;;;;;14.23;7.93;;;6.50;76.20;;;;;;5073603;28;20035;-73
2021/03/09 00:58:23;;;;;;;13.95;8.40;;;6.50;76.20;;;;;;5071974;28;20055;-73
2021/03/09 01:00:49;;;;;;;18.05;9.50;;;6.50;76.20;;;;;;5071734;28;20040;-73
2021/03/09 01:03:15;;;;;;;13.75;8.65;;;6.40;76.20;;;;;;5071789;28;20021;-72
2021/03/09 01:05:41;;;;;;;16.25;9.80;;;6.40;76.30;;;;;;5071655;28;20046;-72
2021/03/09 01:08:07;;;;;;;14.95;9.35;;;6.40;76.40;;;;;;5073243;28;20028;-73
2021/03/09 01:10:34;;;;;;;16.38;9.77;;;6.40;76.40;;;;;;5073095;28;20100;-73
2021/03/09 01:12:59;;;;;;;16.73;9.75;;;6.40;76.60;;;;;;5071860;28;20052;-73
2021/03/09 01:15:25;;;;;;;17.88;8.77;;;6.40;76.60;;;;;;5071570;28;20066;-72
2021/03/09 01:17:51;;;;;;;17.20;9.48;;;6.40;76.60;;;;;;5071467;28;20437;-73
2021/03/09 01:20:16;;;;;;;16.40;8.70;;;6.40;76.70;;;;;;5072734;28;20067;-73
2021/03/09 01:22:43;;;;;;;16.75;8.90;;;6.40;76.80;;;;;;5072651;28;20025;-73
2021/03/09 01:25:09;;;;;;;17.58;10.45;;;6.40;76.80;;;;;;5071773;28;20047;-72
2021/03/09 01:27:35;;;;;;;17.65;9.85;;;6.40;76.90;;;;;;5071516;28;20063;-72
2021/03/09 01:30:01;;;;;;;19.85;10.98;;;6.40;76.90;;;;;;5071631;28;20025;-72
2021/03/09 01:32:26;;;;;;;19.70;10.43;;;6.40;77.60;;;;;;5072008;28;20040;-73
2021/03/09 01:34:52;;;;;;;18.85;10.85;;;6.40;77.10;;;;;;5072640;28;20040;-73
2021/03/09 01:37:18;;;;;;;18.27;10.93;;;6.40;77.20;;;;;;5071403;28;20024;-73
2021/03/09 01:39:44;;;;;;;19.80;11.75;;;6.40;77.30;;;;;;5072725;28;20085;-73
2021/03/09 01:42:09;;;;;;;19.45;11.75;;;6.40;77.40;;;;;;5071317;28;20506;-72
2021/03/09 01:44:35;;;;;;;21.23;12.32;;;6.30;77.40;;;;;;5071654;28;20021;-73
2021/03/09 01:47:02;;;;;;;22.98;12.35;;;6.30;77.60;;;;;;5071354;28;20028;-72
2021/03/09 01:49:34;;;;;;;24.05;13.32;;;6.30;77.70;;;;;;5073058;28;20103;-72
2021/03/09 01:52:01;;;;;;;20.63;11.38;;;6.20;77.80;;;;;;5072692;28;20094;-72
2021/03/09 01:54:27;;;;;;;23.77;13.07;;;6.20;78.00;;;;;;5071158;28;20112;-72
2021/03/09 01:56:53;;;;;;;24.52;13.73;;;6.20;78.10;;;;;;5072476;28;20062;-72
2021/03/09 01:59:21;;;;;;;26.58;14.80;;;6.10;78.50;;;;;;5072436;28;20025;-70
2021/03/09 02:01:47;;;;;;;22.02;13.05;;;6.10;78.80;;;;;;5072562;28;20020;-71
2021/03/09 02:04:13;;;;;;;25.55;13.80;;;6.10;78.70;;;;;;5071307;28;20028;-72
2021/03/09 02:06:39;;;;;;;24.50;14.15;;;6.00;78.70;;;;;;5070912;28;20036;-72
2021/03/09 02:09:06;;;;;;;27.48;15.05;;;6.00;78.80;;;;;;5072716;28;20104;-72
2021/03/09 02:11:38;;;;;;;23.40;14.32;;;6.00;78.90;;;;;;5071068;28;20048;-72
2021/03/09 02:14:23;;;;;;;24.90;13.75;;;6.00;79.00;;;;;;5071069;28;20052;-72
2021/03/09 02:17:06;;;;;;;25.08;13.95;;;6.00;79.10;;;;;;5072380;28;20388;-72
2021/03/09 02:20:11;;;;;;;23.90;14.07;;;6.00;79.10;;;;;;5071099;28;20040;-72
2021/03/09 02:23:07;;;;;;;26.08;14.73;;;6.00;79.30;;;;;;5072214;28;20295;-72
2021/03/09 02:25:51;;;;;;;25.20;14.48;;;6.00;79.30;;;;;;5072369;28;20099;-72
2021/03/09 02:28:42;;;;;;;26.00;13.93;;;6.00;79.30;;;;;;5070969;28;20040;-72
2021/03/09 02:31:08;;;;;;;29.40;15.23;;;6.00;79.30;;;;;;5072186;28;20029;-72
2021/03/09 02:33:40;;;;;;;24.40;13.63;;;6.10;79.30;;;;;;5072275;28;20035;-72
2021/03/09 02:36:16;;;;;;;23.15;12.63;;;6.10;79.30;;;;;;5072311;28;20111;-72
2021/03/09 02:38:43;;;;;;;26.17;14.35;;;6.10;79.40;;;;;;5072107;28;20094;-72
2021/03/09 02:41:12;;;;;;;25.85;14.23;;;6.10;79.30;;;;;;5072220;28;20125;-72
2021/03/09 02:43:41;;;;;;;25.27;14.68;;;6.10;79.40;;;;;;5070917;28;20036;-72
2021/03/09 02:46:08;;;;;;;27.30;15.13;;;6.10;79.50;;;;;;5075991;28;20417;-72
2021/03/09 02:48:36;;;;;;;23.90;14.80;;;6.10;79.60;;;;;;5074933;28;20108;-72
2021/03/09 02:51:04;;;;;;;27.50;15.57;;;6.10;79.60;;;;;;5074883;28;20463;-72
2021/03/09 02:53:33;;;;;;;25.83;14.35;;;6.10;79.70;;;;;;5075724;28;20111;-72
2021/03/09 02:56:03;;;;;;;26.10;15.63;;;6.10;79.80;;;;;;5075837;28;20045;-72
2021/03/09 02:58:30;;;;;;;29.23;16.02;;;6.10;79.90;;;;;;5075642;28;20064;-72
2021/03/09 03:00:57;;;;;;;30.23;16.92;;;6.10;79.80;;;;;;5075601;28;20035;-72
2021/03/09 03:03:23;;;;;;;27.80;15.27;;;6.10;80.00;;;;;;5074150;28;20068;-72
2021/03/09 03:05:49;;;;;;;25.67;14.82;;;6.10;80.00;;;;;;5075484;28;20045;-72
2021/03/09 03:08:16;;;;;;;27.50;15.68;;;6.10;80.00;;;;;;5074139;28;20029;-72
2021/03/09 03:10:45;;;;;;;27.75;15.82;;;6.10;80.10;;;;;;5075319;28;20094;-72
2021/03/09 03:13:13;;;;;;;25.63;14.45;;;6.10;80.10;;;;;;5075478;28;20036;-72
2021/03/09 03:15:42;;;;;;;28.60;15.60;;;6.10;80.20;;;;;;5075293;28;20040;-72
2021/03/09 03:18:15;;;;;;;27.52;15.13;;;6.10;80.20;;;;;;5075671;28;20028;-72
2021/03/09 03:20:45;;;;;;;34.30;17.65;;;6.10;80.20;;;;;;5075113;28;20369;-72
2021/03/09 03:23:13;;;;;;;31.35;17.17;;;6.20;80.20;;;;;;5075063;28;20032;-72
2021/03/09 03:25:38;;;;;;;28.00;16.65;;;6.20;80.30;;;;;;5073845;28;20020;-72
2021/03/09 03:28:08;;;;;;;29.30;16.98;;;6.20;80.30;;;;;;5075175;28;20043;-72
2021/03/09 03:30:34;;;;;;;26.02;16.08;;;6.20;80.30;;;;;;5073879;28;20020;-72
2021/03/09 03:33:00;;;;;;;32.22;17.38;;;6.20;80.30;;;;;;5073784;28;20377;-71
2021/03/09 03:35:26;;;;;;;30.77;17.50;;;6.20;80.30;;;;;;5074909;28;20036;-72
2021/03/09 03:37:52;;;;;;;30.77;17.48;;;6.20;80.40;;;;;;5073529;28;20123;-72
2021/03/09 03:40:20;;;;;;;33.40;18.13;;;6.20;80.40;;;;;;5074861;28;20103;-72
2021/03/09 03:42:46;;;;;;;30.73;17.23;;;6.20;80.40;;;;;;5073400;28;20025;-72
2021/03/09 03:45:15;;;;;;;32.40;17.85;;;6.20;80.40;;;;;;5074855;28;20027;-72
2021/03/09 03:47:41;;;;;;;31.77;17.83;;;6.20;80.40;;;;;;5073434;28;20021;-72
2021/03/09 03:50:10;;;;;;;30.73;18.13;;;6.20;80.40;;;;;;5074676;28;20075;-72
2021/03/09 03:53:11;;;;;;;34.95;19.05;;;6.20;80.60;;;;;;5073291;28;20613;-72
2021/03/09 03:55:55;;;;;;;36.00;20.65;;;6.20;80.50;;;;;;5064155;28;20110;-72
2021/03/09 03:58:26;;;;;;;40.67;20.48;;;6.20;80.60;;;;;;5073276;28;20036;-72
2021/03/09 04:00:53;;;;;;;38.95;21.67;;;6.10;80.80;;;;;;5074390;28;20033;-72
2021/03/09 04:03:19;;;;;;;38.20;21.63;;;6.10;80.90;;;;;;5073239;28;20158;-72
2021/03/09 04:05:47;;;;;;;33.63;19.95;;;6.10;81.00;;;;;;5074115;28;20088;-72
2021/03/09 04:08:15;;;;;;;39.83;22.33;;;6.10;81.00;;;;;;5074804;28;20520;-72
2021/03/09 04:10:42;;;;;;;38.17;21.30;;;6.10;81.20;;;;;;5074241;28;20036;-72
2021/03/09 04:13:08;;;;;;;36.58;22.17;;;6.10;81.40;;;;;;5074285;28;20042;-72
2021/03/09 04:15:36;;;;;;;40.85;22.17;;;6.10;81.40;;;;;;5072849;28;20074;-72
2021/03/09 04:18:05;;;;;;;41.53;23.98;;;6.10;81.50;;;;;;5074132;28;20032;-72
2021/03/09 04:20:32;;;;;;;39.05;22.60;;;6.10;81.70;;;;;;5072913;28;20032;-72
2021/03/09 04:22:59;;;;;;;40.28;21.25;;;6.10;81.70;;;;;;5074054;28;20032;-72
2021/03/09 04:25:26;;;;;;;44.60;25.05;;;6.10;81.80;;;;;;5072636;28;20028;-72
2021/03/09 04:27:52;;;;;;;44.17;23.90;;;6.10;81.90;;;;;;5074387;28;20494;-72
2021/03/09 04:30:18;;;;;;;40.10;22.70;;;6.10;82.00;;;;;;5072583;28;20021;-72
2021/03/09 04:32:45;;;;;;;41.13;24.45;;;6.10;82.10;;;;;;5072406;28;20139;-72
2021/03/09 04:35:11;;;;;;;39.65;21.42;;;6.10;82.90;;;;;;5073768;28;20067;-73
2021/03/09 04:37:39;;;;;;;40.22;23.83;;;6.10;82.20;;;;;;5072318;28;20156;-72
2021/03/09 04:40:06;;;;;;;37.17;21.45;;;6.00;82.20;;;;;;5072383;28;20024;-71
2021/03/09 04:42:32;;;;;;;37.70;21.70;;;6.10;82.30;;;;;;5072192;28;20511;-71
2021/03/09 04:44:58;;;;;;;36.00;21.23;;;6.10;82.30;;;;;;5072347;28;20033;-72
2021/03/09 04:47:24;;;;;;;40.13;22.75;;;6.10;82.30;;;;;;5072240;28;20028;-72
2021/03/09 04:49:54;;;;;;;44.55;25.98;;;6.10;82.30;;;;;;5072241;28;20032;-72
2021/03/09 04:52:21;;;;;;;42.75;24.63;;;6.10;82.40;;;;;;5073339;28;20048;-72
2021/03/09 04:54:47;;;;;;;40.72;23.55;;;6.10;82.50;;;;;;5072042;28;20400;-72
2021/03/09 04:57:12;;;;;;;42.30;24.92;;;6.10;82.50;;;;;;5073326;28;20035;-72
2021/03/09 04:59:38;;;;;;;45.75;26.85;;;6.00;82.70;;;;;;5073275;28;20032;-72
2021/03/09 05:02:03;;;;;;;41.22;24.60;;;6.00;82.80;;;;;;5073308;28;20418;-72
2021/03/09 05:04:29;;;;;;;42.88;25.13;;;6.00;83.00;;;;;;5073489;28;20081;-72
2021/03/09 05:06:55;;;;;;;42.30;24.38;;;6.00;83.20;;;;;;5072868;28;20090;-72
2021/03/09 05:09:20;;;;;;;41.72;24.15;;;5.90;83.20;;;;;;5071855;28;20025;-71
2021/03/09 05:11:46;;;;;;;48.95;28.27;;;5.90;83.30;;;;;;5073115;28;20048;-72
2021/03/09 05:14:12;;;;;;;45.35;24.85;;;5.90;83.40;;;;;;5071712;28;20102;-72
2021/03/09 05:16:37;;;;;;;47.35;27.27;;;5.90;83.40;;;;;;5073041;28;20103;-72
2021/03/09 05:19:03;;;;;;;47.00;26.05;;;6.00;83.40;;;;;;5073026;28;20055;-72
2021/03/09 05:21:29;;;;;;;50.33;28.85;;;6.00;83.30;;;;;;5071665;28;20036;-72
2021/03/09 05:23:55;;;;;;;46.72;26.63;;;6.00;83.90;;;;;;5072816;28;20426;-71
2021/03/09 05:26:20;;;;;;;49.28;28.95;;;6.10;83.30;;;;;;5071572;28;20111;-72
2021/03/09 05:28:49;;;;;;;50.63;29.30;;;6.00;83.30;;;;;;5071426;28;20025;-72
2021/03/09 05:31:15;;;;;;;48.03;27.23;;;6.00;83.30;;;;;;5071388;28;20025;-72
2021/03/09 05:33:41;;;;;;;49.22;26.90;;;6.10;83.40;;;;;;5071292;28;20035;-72
2021/03/09 05:36:07;;;;;;;50.80;28.63;;;6.10;83.40;;;;;;5073138;28;20033;-72
2021/03/09 05:38:33;;;;;;;51.25;30.33;;;6.10;83.40;;;;;;5071221;28;20119;-72
2021/03/09 05:40:59;;;;;;;44.60;26.90;;;6.10;83.40;;;;;;5071323;28;20178;-72
2021/03/09 05:43:25;;;;;;;46.05;27.38;;;6.10;83.40;;;;;;5072493;28;20029;-71
2021/03/09 05:45:54;;;;;;;48.25;26.63;;;6.10;83.40;;;;;;5071307;28;20072;-72
2021/03/09 05:48:20;;;;;;;52.72;30.33;;;6.20;83.40;;;;;;5072654;28;20115;-72
2021/03/09 05:50:46;;;;;;;54.38;31.90;;;6.20;83.50;;;;;;5071048;28;20132;-72
2021/03/09 05:53:11;;;;;;;49.22;28.08;;;6.20;83.50;;;;;;5072717;28;20040;-71
2021/03/09 05:55:37;;;;;;;45.47;27.73;;;6.20;83.50;;;;;;5072552;28;20028;-72
2021/03/09 05:58:02;;;;;;;50.50;29.45;;;6.20;83.50;;;;;;5072686;28;20491;-72
2021/03/09 06:00:28;;;;;;;53.65;30.17;;;6.20;83.60;;;;;;5071163;28;20036;-72
2021/03/09 06:02:54;;;;;;;51.33;29.63;;;6.20;83.60;;;;;;5071854;28;20025;-72
2021/03/09 06:05:20;;;;;;;44.05;28.05;;;6.20;83.70;;;;;;5072252;28;20024;-72
2021/03/09 06:07:46;;;;;;;47.15;28.10;;;6.20;83.60;;;;;;5070959;28;20029;-72
2021/03/09 06:10:22;;;;;;;50.92;30.80;;;6.20;83.70;;;;;;5070816;28;20037;-72
2021/03/09 06:12:50;;;;;;;50.38;29.55;;;6.20;83.70;;;;;;5072245;28;20044;-72
2021/03/09 06:15:17;;;;;;;59.13;33.35;;;6.20;83.60;;;;;;5072268;28;20392;-72
2021/03/09 06:17:45;;;;;;;52.67;31.95;;;6.20;83.60;;;;;;5070839;28;20021;-72
2021/03/09 06:20:17;;;;;;;51.70;31.63;;;6.20;83.60;;;;;;5073707;28;20028;-72
2021/03/09 06:22:51;;;;;;;61.13;35.95;;;6.20;83.60;;;;;;5076436;28;20376;-72
2021/03/09 06:25:20;;;;;;;55.10;34.13;;;6.20;83.80;;;;;;5076068;28;20058;-72
2021/03/09 06:27:46;;;;;;;60.55;34.88;;;6.20;84.00;;;;;;5074557;28;20029;-72
2021/03/09 06:30:14;;;;;;;60.20;36.13;;;6.20;84.10;;;;;;5075973;28;20036;-71
2021/03/09 06:32:45;;;;;;;61.28;35.15;;;6.10;84.20;;;;;;5076233;28;20419;-71
2021/03/09 06:35:29;;;;;;;57.15;34.85;;;6.10;84.20;;;;;;5074370;28;20035;-72
2021/03/09 06:38:20;;;;;;;68.72;39.47;;;6.10;84.30;;;;;;5075517;28;20039;-72
2021/03/09 06:41:10;;;;;;;60.72;35.00;;;6.10;84.30;;;;;;5074179;28;20029;-71
2021/03/09 06:43:38;;;;;;;64.28;37.60;;;6.10;84.30;;;;;;5074094;28;20396;-71
2021/03/09 06:46:09;;;;;;;72.25;40.13;;;6.10;84.30;;;;;;5075342;28;20077;-71
2021/03/09 06:48:38;;;;;;;57.83;35.10;;;6.10;84.40;;;;;;5074218;28;20051;-71
2021/03/09 06:51:04;;;;;;;68.95;38.65;;;6.20;84.40;;;;;;5075343;28;20462;-71
2021/03/09 06:53:30;;;;;;;68.72;39.42;;;6.20;85.00;;;;;;5075754;28;20124;-71
2021/03/09 06:55:56;;;;;;;63.40;35.33;;;6.20;84.50;;;;;;5075380;28;20106;-71
2021/03/09 06:58:28;;;;;;;59.78;34.90;;;6.20;84.50;;;;;;5073883;28;20037;-71
2021/03/09 07:00:54;;;;;;;64.13;37.38;;;6.20;84.60;;;;;;5073882;28;20116;-71
2021/03/09 07:03:33;;;;;;;65.28;36.60;;;6.20;84.60;;;;;;5073863;28;20531;-71
2021/03/09 07:05:59;;;;;;;56.45;33.00;;;6.20;84.70;;;;;;5075055;28;20033;-71
2021/03/09 07:08:26;;;;;;;64.70;36.88;;;6.20;84.90;;;;;;5075402;28;20103;-71
2021/03/09 07:10:53;;;;;;;64.50;35.55;;;6.20;84.80;;;;;;5074008;28;20539;-72
2021/03/09 07:13:25;;;;;;;57.63;32.47;;;6.20;85.10;;;;;;5075462;28;20082;-71
2021/03/09 07:15:51;;;;;;;58.90;32.85;;;6.20;85.00;;;;;;5075039;28;20480;-72
2021/03/09 07:18:25;;;;;;;58.67;33.70;;;6.20;85.00;;;;;;5075239;28;20099;-71
2021/03/09 07:20:53;;;;;;;56.72;32.88;;;6.30;85.10;;;;;;5074078;28;20032;-72
2021/03/09 07:23:20;;;;;;;62.72;33.50;;;6.30;85.20;;;;;;5073691;28;20511;-72
2021/03/09 07:25:57;;;;;;;56.80;33.20;;;6.30;85.20;;;;;;5073401;28;20462;-72
2021/03/09 07:28:29;;;;;;;61.67;35.17;;;6.40;85.20;;;;;;5073458;28;20035;-72
2021/03/09 07:30:58;;;;;;;55.90;33.75;;;6.30;85.40;;;;;;5074843;28;20514;-72
2021/03/09 07:33:25;;;;;;;52.50;31.90;;;6.30;85.50;;;;;;5073750;28;20139;-71
2021/03/09 07:35:51;;;;;;;56.40;30.13;;;6.30;85.60;;;;;;5074970;28;20099;-72
2021/03/09 07:38:21;;;;;;;57.53;32.22;;;6.30;85.80;;;;;;5073537;28;20052;-72
2021/03/09 07:40:50;;;;;;;426.88;49.42;;;6.40;85.70;;;;;;5074878;28;20035;-72
2021/03/09 07:43:16;;;;;;;47.15;28.98;;;6.40;85.80;;;;;;5073438;28;20033;-72
2021/03/09 07:45:42;;;;;;;47.60;28.38;;;6.40;85.80;;;;;;5074795;28;20369;-72
2021/03/09 07:48:11;;;;;;;43.58;25.52;;;6.50;85.80;;;;;;5073572;28;20526;-72
2021/03/09 07:50:40;;;;;;;42.13;24.88;;;6.50;85.70;;;;;;5073341;28;20067;-72
2021/03/09 07:53:19;;;;;;;40.42;23.45;;;6.60;85.70;;;;;;5073248;28;20036;-72
2021/03/09 07:55:45;;;;;;;35.72;22.10;;;6.70;85.70;;;;;;5074584;28;20388;-72
2021/03/09 07:58:25;;;;;;;36.58;22.00;;;6.70;85.60;;;;;;5073195;28;20036;-71
2021/03/09 08:01:05;;;;;;;31.73;20.15;;;6.70;85.50;;;;;;5074524;28;20077;-72
2021/03/09 08:03:34;;;;;;;33.10;20.48;;;6.80;85.60;;;;;;5074186;28;20090;-72
2021/03/09 08:06:09;;;;;;;88.15;20.65;;;6.80;85.40;;;;;;5072924;28;20387;-71
2021/03/09 08:08:40;;;;;;;29.77;18.27;;;6.80;85.40;;;;;;5072838;28;20040;-72
2021/03/09 08:11:27;;;;;;;29.13;17.63;;;6.90;85.40;;;;;;5073040;28;20029;-72
2021/03/09 08:14:08;;;;;;;26.70;16.27;;;6.90;85.40;;;;;;5071945;28;20120;-72
2021/03/09 08:16:35;;;;;;;21.67;14.18;;;7.00;85.40;;;;;;5073921;28;20039;-71
2021/03/09 08:19:08;;;;;;;21.00;14.05;;;7.10;85.40;;;;;;5073986;28;20152;-71
2021/03/09 08:22:01;;;;;;;19.55;12.98;;;7.10;85.30;;;;;;5074383;28;20032;-72
2021/03/09 08:24:42;;;;;;;21.35;13.98;;;7.20;85.20;;;;;;5074093;28;20035;-72
2021/03/09 08:27:30;;;;;;;22.23;13.18;;;7.20;85.20;;;;;;5073748;28;20487;-72
2021/03/09 08:30:25;;;;;;;20.08;12.10;;;7.20;85.20;;;;;;5072355;28;20052;-72
2021/03/09 08:32:51;;;;;;;19.00;12.55;;;7.20;85.20;;;;;;5073220;28;20058;-72
2021/03/09 08:35:18;;;;;;;17.48;11.43;;;7.20;85.20;;;;;;5072421;28;20095;-72
2021/03/09 08:37:46;;;;;;;16.33;10.68;;;7.20;85.20;;;;;;5072034;28;20043;-72
2021/03/09 08:40:22;;;;;;;17.83;11.75;;;7.20;85.20;;;;;;5073418;28;20111;-72
2021/03/09 08:43:03;;;;;;;17.90;11.75;;;7.30;85.20;;;;;;5072690;28;20495;-72
2021/03/09 08:45:39;;;;;;;18.58;11.65;;;7.30;85.10;;;;;;5073400;28;20032;-72
2021/03/09 08:48:06;;;;;;;20.67;10.70;;;7.40;85.20;;;;;;5072150;28;20480;-72
2021/03/09 08:50:44;;;;;;;19.98;11.15;;;7.40;85.10;;;;;;5073286;28;20029;-72
2021/03/09 08:53:31;;;;;;;16.38;9.85;;;7.50;85.10;;;;;;5073472;28;20099;-72
2021/03/09 08:56:02;;;;;;;15.63;9.20;;;7.50;85.00;;;;;;5073452;28;20071;-72
2021/03/09 08:58:28;;;;;;;13.40;8.48;;;7.60;85.00;;;;;;5071977;28;20494;-72
2021/03/09 09:00:55;;;;;;;12.73;7.13;;;7.60;84.80;;;;;;5073812;28;20060;-72
2021/03/09 09:03:37;;;;;;;10.40;6.55;;;7.60;84.80;;;;;;5073035;28;20037;-72
2021/03/09 09:06:07;;;;;;;9.45;6.53;;;7.70;84.80;;;;;;5071930;28;20482;-72
2021/03/09 09:08:33;;;;;;;10.52;5.55;;;7.70;84.70;;;;;;5073259;28;20032;-72
2021/03/09 09:11:00;;;;;;;9.98;5.45;;;7.70;84.70;;;;;;5071818;28;20380;-72
2021/03/09 09:13:33;;;;;;;6.82;4.88;;;7.70;84.50;;;;;;5073290;28;20037;-72
2021/03/09 09:16:00;;;;;;;;;;;7.70;84.50;;;;;;5073746;28;20046;-73
2021/03/09 09:18:27;;;;;;;6.97;4.25;;;7.80;84.40;;;;;;5071464;28;19931;-72
2021/03/09 09:20:54;;;;;;;5.32;4.05;;;7.80;84.20;;;;;;5072821;28;20434;-72
2021/03/09 09:23:30;;;;;;;7.25;4.18;;;7.80;84.10;;;;;;5072930;28;20029;-72
2021/03/09 09:25:58;;;;;;;6.07;3.20;;;7.80;84.00;;;;;;5072856;28;20065;-72
2021/03/09 09:28:34;;;;;;;5.28;3.00;;;7.80;84.30;;;;;;5072825;28;20055;-72
2021/03/09 09:31:15;;;;;;;5.93;3.17;;;7.80;84.10;;;;;;5071289;28;20032;-72
2021/03/09 09:33:50;;;;;;;6.15;2.97;;;7.80;84.00;;;;;;5072629;28;20035;-72
2021/03/09 09:36:15;;;;;;;5.25;3.05;;;7.80;84.00;;;;;;5071281;28;20017;-72
2021/03/09 09:38:41;;;;;;;4.95;2.90;;;7.90;83.90;;;;;;5071408;28;20028;-72
2021/03/09 09:41:07;;;;;;;4.25;2.35;;;8.00;83.70;;;;;;5071456;28;20102;-72
2021/03/09 09:43:33;;;;;;;6.38;3.17;;;8.10;83.60;;;;;;5071472;28;20472;-72
2021/03/09 09:46:07;;;;;;;4.97;2.55;;;8.10;83.60;;;;;;5071441;28;20025;-72
2021/03/09 09:48:38;;;;;;;6.28;3.10;;;8.10;83.40;;;;;;5073169;28;20384;-72
2021/03/09 09:51:15;;;;;;;4.32;2.58;;;8.10;83.20;;;;;;5071105;28;20020;-72
2021/03/09 09:53:43;;;;;;;3.80;1.90;;;8.20;83.20;;;;;;5071444;28;20036;-72
2021/03/09 09:56:11;;;;;;;3.05;2.15;;;8.10;83.10;;;;;;5075388;28;20177;-72
2021/03/09 09:58:48;;;;;;;3.33;2.05;;;8.20;83.20;;;;;;5075421;28;20032;-72
2021/03/09 10:01:15;;;;;;;3.78;2.00;;;8.30;83.00;;;;;;5075394;28;20028;-72
2021/03/09 10:03:57;;;;;;;4.45;1.80;;;8.40;82.90;;;;;;5076434;28;20036;-72
2021/03/09 10:06:26;;;;;;;2.42;1.85;;;8.50;82.60;;;;;;5075127;28;20085;-72
2021/03/09 10:08:53;;;;;;;3.15;1.90;;;8.50;82.30;;;;;;5076694;28;20109;-72
2021/03/09 10:11:20;;;;;;;3.45;1.73;;;8.60;82.20;;;;;;5076937;28;20025;-72
2021/03/09 10:13:46;;;;;;;3.78;1.83;;;8.60;81.90;;;;;;5076779;28;20028;-72
2021/03/09 10:16:12;;;;;;;2.25;1.80;;;8.60;81.90;;;;;;5075177;28;20036;-72
2021/03/09 10:18:38;;;;;;;2.95;1.85;;;8.70;81.80;;;;;;5075042;28;20024;-72
2021/03/09 10:21:08;;;;;;;3.05;1.88;;;8.70;81.70;;;;;;5074935;28;20062;-72
2021/03/09 10:23:50;;;;;;;4.30;1.98;;;8.70;81.50;;;;;;5076109;28;20333;-72
2021/03/09 10:26:24;;;;;;;5.43;1.63;;;8.70;81.10;;;;;;5076114;28;20185;-72
2021/03/09 10:29:03;;;;;;;5.03;1.83;;;8.60;80.90;;;;;;5076009;28;20098;-72
2021/03/09 10:31:49;;;;;;;2.75;1.45;;;8.50;80.70;;;;;;5076137;28;20039;-72
2021/03/09 10:34:17;;;;;;;5.05;1.77;;;8.50;80.60;;;;;;5075463;28;20124;-72
2021/03/09 10:36:48;;;;;;;2.35;1.45;;;8.50;80.70;;;;;;5074577;28;20510;-72
2021/03/09 10:39:14;;;;;;;4.72;1.58;;;8.60;80.80;;;;;;5074527;28;20388;-72
2021/03/09 10:41:40;;;;;;;3.42;1.30;;;8.60;80.30;;;;;;5075807;28;20354;-72
2021/03/09 10:44:05;;;;;;;1.73;1.00;;;8.70;80.30;;;;;;5074344;28;20039;-72
2021/03/09 10:46:34;;;;;;;3.10;1.60;;;8.80;80.20;;;;;;5075806;28;20103;-72
2021/03/09 10:49:00;;;;;;;3.95;1.70;;;8.80;79.80;;;;;;5074368;28;20027;-72
2021/03/09 10:51:26;;;;;;;2.25;1.40;;;8.80;79.70;;;;;;5074297;28;20365;-72
2021/03/09 10:53:52;;;;;;;4.13;1.38;;;8.80;80.00;;;;;;5074029;28;20131;-72
2021/03/09 10:56:17;;;;;;;4.15;1.10;;;8.70;80.00;;;;;;5074345;28;20046;-73
2021/03/09 10:58:43;;;;;;;1.65;1.20;;;8.70;79.60;;;;;;5075194;28;20064;-72
2021/03/09 11:01:09;;;;;;;4.97;1.40;;;8.70;79.60;;;;;;5075597;28;20032;-72
2021/03/09 11:03:34;;;;;;;1.45;1.00;;;8.70;79.60;;;;;;5075542;28;20063;-72
2021/03/09 11:06:00;;;;;;;2.03;1.10;;;8.70;79.70;;;;;;5074295;28;20057;-72
2021/03/09 11:08:26;;;;;;;5.47;2.95;;;8.70;79.60;;;;;;5075323;28;20044;-72
2021/03/09 11:10:55;;;;;;;2.13;1.58;;;8.80;79.40;;;;;;5073902;28;20423;-72
2021/03/09 11:13:21;;;;;;;2.25;1.05;;;8.80;78.90;;;;;;5075726;28;20040;-73
2021/03/09 11:15:47;;;;;;;2.03;0.88;;;8.80;78.50;;;;;;5075848;28;20049;-72
2021/03/09 11:18:13;;;;;;;0.95;0.70;;;8.90;78.30;;;;;;5073814;28;20055;-72
2021/03/09 11:20:41;;;;;;;0.60;0.60;;;8.90;77.80;;;;;;5075213;28;20025;-72
2021/03/09 11:23:07;;;;;;;2.55;1.10;;;9.00;77.50;;;;;;5073717;28;20029;-73
2021/03/09 11:25:34;;;;;;;1.17;0.73;;;9.00;77.40;;;;;;5075704;28;20365;-72
2021/03/09 11:28:01;;;;;;;1.08;0.73;;;9.00;77.20;;;;;;5075229;28;20015;-72
2021/03/09 11:30:27;;;;;;;2.75;0.73;;;9.00;77.00;;;;;;5074975;28;20025;-72
2021/03/09 11:32:52;;;;;;;1.58;0.80;;;9.10;76.70;;;;;;5074865;28;20036;-72
2021/03/09 11:35:18;;;;;;;1.02;0.80;;;9.00;77.00;;;;;;5074799;28;20103;-72
2021/03/09 11:37:44;;;;;;;2.33;0.65;;;9.00;77.10;;;;;;5073404;28;20392;-72
2021/03/09 11:40:10;;;;;;;0.57;0.57;;;8.90;77.20;;;;;;5073367;28;20025;-72
2021/03/09 11:42:36;;;;;;;1.38;0.70;;;8.80;77.20;;;;;;5073182;28;20069;-72
2021/03/09 11:45:03;;;;;;;0.30;0.30;;;8.70;77.20;;;;;;5074787;28;20032;-72
2021/03/09 11:47:28;;;;;;;0.63;0.60;;;8.50;77.60;;;;;;5073357;28;20490;-73
2021/03/09 11:49:54;;;;;;;1.15;0.30;;;8.40;77.90;;;;;;5074439;28;20013;-72
2021/03/09 11:52:19;;;;;;;0.40;0.40;;;8.30;78.20;;;;;;5073016;28;20028;-72
2021/03/09 11:54:45;;;;;;;0.22;0.22;;;8.20;78.40;;;;;;5072990;28;20020;-70
2021/03/09 11:57:11;;;;;;;0.40;0.40;;;8.30;78.40;;;;;;5074232;28;20024;-71
2021/03/09 11:59:36;;;;;;;0.40;0.40;;;8.30;78.30;;;;;;5073015;28;20020;-71
2021/03/09 12:02:02;;;;;;;0.28;0.28;;;8.40;78.40;;;;;;5074474;28;20429;-71
2021/03/09 12:04:27;;;;;;;1.33;0.68;;;8.50;78.30;;;;;;5074509;28;20024;-71
2021/03/09 12:06:53;;;;;;;1.20;0.47;;;8.60;78.00;;;;;;5074023;28;20055;-71
2021/03/09 12:09:22;;;;;;;0.47;0.30;;;8.70;77.90;;;;;;5074272;28;20440;-71
2021/03/09 12:11:47;;;;;;;0.40;0.25;;;8.70;77.50;;;;;;5074075;28;20020;-72
2021/03/09 12:14:13;;;;;;;7.70;4.00;;;8.80;77.60;;;;;;5074231;28;20039;-71
2021/03/09 12:16:39;;;;;;;6.25;3.60;;;8.70;77.40;;;;;;5071906;28;20063;-71
2021/03/09 12:19:05;;;;;;;2.15;1.42;;;8.80;77.50;;;;;;5072541;28;20020;-72
2021/03/09 12:21:31;;;;;;;2.50;1.17;;;8.80;77.50;;;;;;5073940;28;20392;-71
2021/03/09 12:23:56;;;;;;;0.90;0.52;;;8.80;77.50;;;;;;5074065;28;20060;-72
2021/03/09 12:26:22;;;;;;;0.98;0.55;;;8.80;77.60;;;;;;5072587;28;20031;-71
2021/03/09 12:28:48;;;;;;;2.13;0.60;;;8.80;77.60;;;;;;5072561;28;20027;-71
2021/03/09 12:31:13;;;;;;;0.90;0.55;;;8.80;77.80;;;;;;5072605;28;20107;-71
2021/03/09 12:33:39;;;;;;;1.30;0.50;;;8.70;78.00;;;;;;5073844;28;20059;-71
2021/03/09 12:36:05;;;;;;;0.80;0.50;;;8.70;78.20;;;;;;5072330;28;20097;-71
2021/03/09 12:38:31;;;;;;;1.35;0.60;;;8.70;78.20;;;;;;5072289;28;20107;-71
2021/03/09 12:40:57;;;;;;;3.08;0.70;;;8.70;78.40;;;;;;5072501;28;20060;-72
2021/03/09 12:43:22;;;;;;;1.65;0.65;;;8.70;78.50;;;;;;5072381;28;20097;-71
2021/03/09 12:45:48;;;;;;;0.70;0.43;;;8.70;78.60;;;;;;5072356;28;20533;-71
2021/03/09 12:48:14;;;;;;;1.48;0.55;;;8.70;78.60;;;;;;5073526;28;20016;-71
2021/03/09 12:50:39;;;;;;;0.82;0.52;;;8.70;78.70;;;;;;5072019;28;20025;-71